sensor_id;sensor_type;location;lat;lon;timestamp;P1;durP1;ratioP1;P2;durP2;ratioP2
74177;SDS011;62540;48.456;-4.456;2024-03-17T00:00:42;2.00;;;2.00;;
74177;SDS011;62540;48.456;-4.456;2024-03-17T00:03:07;2.00;;;1.50;;
74177;SDS011;62540;48.456;-4.456;2024-03-17T00:05:36;1.50;;;1.50;;
74177;SDS011;62540;48.456;-4.456;2024-03-17T00:08:03;1.50;;;1.50;;
74177;SDS011;62540;48.456;-4.456;2024-03-17T00:10:30;2.00;;;1.00;;
74177;SDS011;62540;48.456;-4.456;2024-03-17T00:12:56;1.75;;;1.75;;
74177;SDS011;62540;48.456;-4.456;2024-03-17T00:15:22;2.00;;;2.00;;
74177;SDS011;62540;48.456;-4.456;2024-03-17T00:17:48;2.75;;;2.75;;
74177;SDS011;62540;48.456;-4.456;2024-03-17T00:20:13;1.50;;;1.25;;
74177;SDS011;62540;48.456;-4.456;2024-03-17T00:22:48;2.00;;;2.00;;
74177;SDS011;62540;48.456;-4.456;2024-03-17T00:25:14;1.25;;;1.25;;
74177;SDS011;62540;48.456;-4.456;2024-03-17T00:27:40;3.75;;;2.00;;
74177;SDS011;62540;48.456;-4.456;2024-03-17T00:30:08;1.00;;;1.00;;
74177;SDS011;62540;48.456;-4.456;2024-03-17T00:32:37;1.00;;;1.00;;
74177;SDS011;62540;48.456;-4.456;2024-03-17T00:35:04;2.00;;;1.75;;
74177;SDS011;62540;48.456;-4.456;2024-03-17T00:37:30;1.00;;;1.00;;
74177;SDS011;62540;48.456;-4.456;2024-03-17T00:39:55;1.75;;;1.50;;
74177;SDS011;62540;48.456;-4.456;2024-03-17T00:42:21;1.50;;;1.25;;
74177;SDS011;62540;48.456;-4.456;2024-03-17T00:44:46;1.50;;;1.25;;
74177;SDS011;62540;48.456;-4.456;2024-03-17T00:47:12;0.50;;;0.50;;
74177;SDS011;62540;48.456;-4.456;2024-03-17T00:49:37;1.25;;;1.00;;
74177;SDS011;62540;48.456;-4.456;2024-03-17T00:52:02;2.00;;;1.50;;
74177;SDS011;62540;48.456;-4.456;2024-03-17T00:54:28;3.00;;;2.00;;
74177;SDS011;62540;48.456;-4.456;2024-03-17T00:56:53;2.00;;;2.00;;
74177;SDS011;62540;48.456;-4.456;2024-03-17T00:59:19;2.00;;;2.00;;
74177;SDS011;62540;48.456;-4.456;2024-03-17T01:01:44;2.00;;;2.00;;
74177;SDS011;62540;48.456;-4.456;2024-03-17T01:04:10;2.00;;;2.00;;
74177;SDS011;62540;48.456;-4.456;2024-03-17T01:06:35;2.50;;;2.00;;
74177;SDS011;62540;48.456;-4.456;2024-03-17T01:09:01;1.00;;;0.50;;
74177;SDS011;62540;48.456;-4.456;2024-03-17T01:11:26;2.00;;;2.00;;
74177;SDS011;62540;48.456;-4.456;2024-03-17T01:13:52;1.75;;;1.75;;
74177;SDS011;62540;48.456;-4.456;2024-03-17T01:16:17;2.00;;;2.00;;
74177;SDS011;62540;48.456;-4.456;2024-03-17T01:18:43;1.50;;;1.50;;
74177;SDS011;62540;48.456;-4.456;2024-03-17T01:21:10;1.00;;;1.00;;
74177;SDS011;62540;48.456;-4.456;2024-03-17T01:23:36;2.00;;;2.00;;
74177;SDS011;62540;48.456;-4.456;2024-03-17T01:26:02;1.75;;;1.75;;
74177;SDS011;62540;48.456;-4.456;2024-03-17T01:28:27;1.75;;;1.25;;
74177;SDS011;62540;48.456;-4.456;2024-03-17T01:30:53;2.25;;;2.25;;
74177;SDS011;62540;48.456;-4.456;2024-03-17T01:33:18;5.25;;;3.00;;
74177;SDS011;62540;48.456;-4.456;2024-03-17T01:35:43;2.25;;;2.25;;
74177;SDS011;62540;48.456;-4.456;2024-03-17T01:38:09;3.00;;;2.00;;
74177;SDS011;62540;48.456;-4.456;2024-03-17T01:40:37;2.00;;;2.00;;
74177;SDS011;62540;48.456;-4.456;2024-03-17T01:43:03;2.75;;;1.75;;
74177;SDS011;62540;48.456;-4.456;2024-03-17T01:45:29;3.00;;;2.00;;
74177;SDS011;62540;48.456;-4.456;2024-03-17T01:47:57;1.25;;;1.00;;
74177;SDS011;62540;48.456;-4.456;2024-03-17T01:50:24;1.00;;;1.00;;
74177;SDS011;62540;48.456;-4.456;2024-03-17T01:52:55;1.00;;;1.00;;
74177;SDS011;62540;48.456;-4.456;2024-03-17T01:55:24;0.00;;;0.00;;
74177;SDS011;62540;48.456;-4.456;2024-03-17T01:57:52;1.00;;;1.00;;
74177;SDS011;62540;48.456;-4.456;2024-03-17T02:00:18;1.50;;;0.75;;
74177;SDS011;62540;48.456;-4.456;2024-03-17T02:02:44;0.50;;;0.50;;
74177;SDS011;62540;48.456;-4.456;2024-03-17T02:05:09;0.00;;;0.00;;
74177;SDS011;62540;48.456;-4.456;2024-03-17T02:07:35;0.00;;;0.00;;
74177;SDS011;62540;48.456;-4.456;2024-03-17T02:10:01;1.00;;;0.00;;
74177;SDS011;62540;48.456;-4.456;2024-03-17T02:12:28;0.00;;;0.00;;
74177;SDS011;62540;48.456;-4.456;2024-03-17T02:14:56;0.00;;;0.00;;
74177;SDS011;62540;48.456;-4.456;2024-03-17T02:17:22;0.00;;;0.00;;
74177;SDS011;62540;48.456;-4.456;2024-03-17T02:19:50;0.00;;;0.00;;
74177;SDS011;62540;48.456;-4.456;2024-03-17T02:22:15;0.00;;;0.00;;
74177;SDS011;62540;48.456;-4.456;2024-03-17T02:24:42;0.00;;;0.00;;
74177;SDS011;62540;48.456;-4.456;2024-03-17T02:27:07;0.00;;;0.00;;
74177;SDS011;62540;48.456;-4.456;2024-03-17T02:29:34;0.00;;;0.00;;
74177;SDS011;62540;48.456;-4.456;2024-03-17T02:32:01;0.00;;;0.00;;
74177;SDS011;62540;48.456;-4.456;2024-03-17T02:34:35;0.00;;;0.00;;
74177;SDS011;62540;48.456;-4.456;2024-03-17T02:37:02;1.00;;;0.00;;
74177;SDS011;62540;48.456;-4.456;2024-03-17T02:39:32;0.00;;;0.00;;
74177;SDS011;62540;48.456;-4.456;2024-03-17T02:42:05;0.00;;;0.00;;
74177;SDS011;62540;48.456;-4.456;2024-03-17T02:44:31;0.00;;;0.00;;
74177;SDS011;62540;48.456;-4.456;2024-03-17T02:46:58;0.00;;;0.00;;
74177;SDS011;62540;48.456;-4.456;2024-03-17T02:49:27;0.00;;;0.00;;
74177;SDS011;62540;48.456;-4.456;2024-03-17T02:52:00;0.00;;;0.00;;
74177;SDS011;62540;48.456;-4.456;2024-03-17T02:54:26;0.00;;;0.00;;
74177;SDS011;62540;48.456;-4.456;2024-03-17T02:56:51;0.00;;;0.00;;
74177;SDS011;62540;48.456;-4.456;2024-03-17T02:59:16;0.00;;;0.00;;
74177;SDS011;62540;48.456;-4.456;2024-03-17T03:01:42;0.00;;;0.00;;
74177;SDS011;62540;48.456;-4.456;2024-03-17T03:04:08;0.00;;;0.00;;
74177;SDS011;62540;48.456;-4.456;2024-03-17T03:06:33;0.50;;;0.00;;
74177;SDS011;62540;48.456;-4.456;2024-03-17T03:08:59;1.00;;;0.25;;
74177;SDS011;62540;48.456;-4.456;2024-03-17T03:11:25;1.00;;;1.00;;
74177;SDS011;62540;48.456;-4.456;2024-03-17T03:13:50;0.75;;;0.00;;
74177;SDS011;62540;48.456;-4.456;2024-03-17T03:16:16;0.00;;;0.00;;
74177;SDS011;62540;48.456;-4.456;2024-03-17T03:18:43;2.50;;;0.50;;
74177;SDS011;62540;48.456;-4.456;2024-03-17T03:21:09;1.00;;;1.00;;
74177;SDS011;62540;48.456;-4.456;2024-03-17T03:23:36;2.75;;;2.00;;
74177;SDS011;62540;48.456;-4.456;2024-03-17T03:26:02;2.25;;;2.00;;
74177;SDS011;62540;48.456;-4.456;2024-03-17T03:28:29;2.75;;;2.00;;
74177;SDS011;62540;48.456;-4.456;2024-03-17T03:30:56;3.50;;;2.75;;
74177;SDS011;62540;48.456;-4.456;2024-03-17T03:33:21;1.00;;;1.00;;
74177;SDS011;62540;48.456;-4.456;2024-03-17T03:35:47;1.00;;;1.00;;
74177;SDS011;62540;48.456;-4.456;2024-03-17T03:38:13;2.00;;;1.00;;
74177;SDS011;62540;48.456;-4.456;2024-03-17T03:40:42;1.00;;;1.00;;
74177;SDS011;62540;48.456;-4.456;2024-03-17T03:43:11;0.75;;;0.75;;
74177;SDS011;62540;48.456;-4.456;2024-03-17T03:45:37;0.25;;;0.25;;
74177;SDS011;62540;48.456;-4.456;2024-03-17T03:48:03;0.00;;;0.00;;
74177;SDS011;62540;48.456;-4.456;2024-03-17T03:50:29;1.75;;;0.00;;
74177;SDS011;62540;48.456;-4.456;2024-03-17T03:52:55;1.00;;;0.25;;
74177;SDS011;62540;48.456;-4.456;2024-03-17T03:55:21;0.00;;;0.00;;
74177;SDS011;62540;48.456;-4.456;2024-03-17T03:57:46;0.00;;;0.00;;
74177;SDS011;62540;48.456;-4.456;2024-03-17T04:00:17;0.00;;;0.00;;
74177;SDS011;62540;48.456;-4.456;2024-03-17T04:02:49;1.00;;;1.00;;
74177;SDS011;62540;48.456;-4.456;2024-03-17T04:05:16;1.00;;;1.00;;
74177;SDS011;62540;48.456;-4.456;2024-03-17T04:07:42;0.75;;;0.00;;
74177;SDS011;62540;48.456;-4.456;2024-03-17T04:10:08;1.00;;;0.00;;
74177;SDS011;62540;48.456;-4.456;2024-03-17T04:12:35;1.00;;;0.25;;
74177;SDS011;62540;48.456;-4.456;2024-03-17T04:15:01;0.00;;;0.00;;
74177;SDS011;62540;48.456;-4.456;2024-03-17T04:17:26;1.00;;;0.50;;
74177;SDS011;62540;48.456;-4.456;2024-03-17T04:19:52;1.00;;;0.00;;
74177;SDS011;62540;48.456;-4.456;2024-03-17T04:22:19;1.75;;;1.00;;
74177;SDS011;62540;48.456;-4.456;2024-03-17T04:24:45;0.50;;;0.50;;
74177;SDS011;62540;48.456;-4.456;2024-03-17T04:27:11;1.00;;;1.00;;
74177;SDS011;62540;48.456;-4.456;2024-03-17T04:29:38;1.75;;;1.00;;
74177;SDS011;62540;48.456;-4.456;2024-03-17T04:32:04;0.50;;;0.00;;
74177;SDS011;62540;48.456;-4.456;2024-03-17T04:34:30;1.25;;;0.50;;
74177;SDS011;62540;48.456;-4.456;2024-03-17T04:36:56;0.25;;;0.25;;
74177;SDS011;62540;48.456;-4.456;2024-03-17T04:39:22;1.00;;;0.50;;
74177;SDS011;62540;48.456;-4.456;2024-03-17T04:41:48;1.00;;;1.00;;
74177;SDS011;62540;48.456;-4.456;2024-03-17T04:44:15;1.25;;;1.00;;
74177;SDS011;62540;48.456;-4.456;2024-03-17T04:46:40;0.00;;;0.00;;
74177;SDS011;62540;48.456;-4.456;2024-03-17T04:49:06;1.00;;;1.00;;
74177;SDS011;62540;48.456;-4.456;2024-03-17T04:51:31;0.50;;;0.50;;
74177;SDS011;62540;48.456;-4.456;2024-03-17T04:54:00;5.50;;;1.25;;
74177;SDS011;62540;48.456;-4.456;2024-03-17T04:56:28;1.00;;;1.00;;
74177;SDS011;62540;48.456;-4.456;2024-03-17T04:58:53;1.50;;;0.50;;
74177;SDS011;62540;48.456;-4.456;2024-03-17T05:01:19;0.00;;;0.00;;
74177;SDS011;62540;48.456;-4.456;2024-03-17T05:03:45;1.00;;;1.00;;
74177;SDS011;62540;48.456;-4.456;2024-03-17T05:06:10;1.25;;;1.00;;
74177;SDS011;62540;48.456;-4.456;2024-03-17T05:08:35;1.25;;;1.00;;
74177;SDS011;62540;48.456;-4.456;2024-03-17T05:11:05;1.75;;;1.00;;
74177;SDS011;62540;48.456;-4.456;2024-03-17T05:13:34;0.25;;;0.25;;
74177;SDS011;62540;48.456;-4.456;2024-03-17T05:16:00;1.75;;;1.00;;
74177;SDS011;62540;48.456;-4.456;2024-03-17T05:18:26;2.00;;;2.00;;
74177;SDS011;62540;48.456;-4.456;2024-03-17T05:23:28;0.00;;;0.00;;
74177;SDS011;62540;48.456;-4.456;2024-03-17T05:25:56;1.50;;;1.00;;
74177;SDS011;62540;48.456;-4.456;2024-03-17T05:28:22;1.50;;;1.00;;
74177;SDS011;62540;48.456;-4.456;2024-03-17T05:30:49;0.00;;;0.00;;
74177;SDS011;62540;48.456;-4.456;2024-03-17T05:33:16;0.00;;;0.00;;
74177;SDS011;62540;48.456;-4.456;2024-03-17T05:35:53;1.00;;;1.00;;
74177;SDS011;62540;48.456;-4.456;2024-03-17T05:38:22;0.00;;;0.00;;
74177;SDS011;62540;48.456;-4.456;2024-03-17T05:41:08;3.00;;;0.75;;
74177;SDS011;62540;48.456;-4.456;2024-03-17T05:43:37;1.00;;;1.00;;
74177;SDS011;62540;48.456;-4.456;2024-03-17T05:46:07;0.25;;;0.25;;
74177;SDS011;62540;48.456;-4.456;2024-03-17T05:48:33;1.00;;;0.00;;
74177;SDS011;62540;48.456;-4.456;2024-03-17T05:51:02;1.00;;;1.00;;
74177;SDS011;62540;48.456;-4.456;2024-03-17T05:53:28;0.50;;;0.50;;
74177;SDS011;62540;48.456;-4.456;2024-03-17T05:55:53;1.00;;;0.00;;
74177;SDS011;62540;48.456;-4.456;2024-03-17T05:58:20;2.00;;;1.00;;
74177;SDS011;62540;48.456;-4.456;2024-03-17T06:00:45;0.25;;;0.00;;
74177;SDS011;62540;48.456;-4.456;2024-03-17T06:03:11;0.00;;;0.00;;
74177;SDS011;62540;48.456;-4.456;2024-03-17T06:05:38;1.00;;;0.25;;
74177;SDS011;62540;48.456;-4.456;2024-03-17T06:08:06;0.00;;;0.00;;
74177;SDS011;62540;48.456;-4.456;2024-03-17T06:10:33;0.00;;;0.00;;
74177;SDS011;62540;48.456;-4.456;2024-03-17T06:13:00;0.50;;;0.00;;
74177;SDS011;62540;48.456;-4.456;2024-03-17T06:15:26;0.00;;;0.00;;
74177;SDS011;62540;48.456;-4.456;2024-03-17T06:17:52;0.00;;;0.00;;
74177;SDS011;62540;48.456;-4.456;2024-03-17T06:20:22;0.00;;;0.00;;
74177;SDS011;62540;48.456;-4.456;2024-03-17T06:22:53;0.00;;;0.00;;
74177;SDS011;62540;48.456;-4.456;2024-03-17T06:25:19;0.00;;;0.00;;
74177;SDS011;62540;48.456;-4.456;2024-03-17T06:27:44;1.00;;;0.00;;
74177;SDS011;62540;48.456;-4.456;2024-03-17T06:30:13;0.00;;;0.00;;
74177;SDS011;62540;48.456;-4.456;2024-03-17T06:32:39;0.00;;;0.00;;
74177;SDS011;62540;48.456;-4.456;2024-03-17T06:35:06;0.00;;;0.00;;
74177;SDS011;62540;48.456;-4.456;2024-03-17T06:37:32;0.00;;;0.00;;
74177;SDS011;62540;48.456;-4.456;2024-03-17T06:39:58;0.00;;;0.00;;
74177;SDS011;62540;48.456;-4.456;2024-03-17T06:42:23;0.00;;;0.00;;
74177;SDS011;62540;48.456;-4.456;2024-03-17T06:44:49;0.00;;;0.00;;
74177;SDS011;62540;48.456;-4.456;2024-03-17T06:47:14;1.00;;;0.25;;
74177;SDS011;62540;48.456;-4.456;2024-03-17T06:49:40;1.00;;;1.00;;
74177;SDS011;62540;48.456;-4.456;2024-03-17T06:52:05;0.75;;;0.00;;
74177;SDS011;62540;48.456;-4.456;2024-03-17T06:54:31;1.00;;;1.00;;
74177;SDS011;62540;48.456;-4.456;2024-03-17T06:56:59;2.00;;;1.00;;
74177;SDS011;62540;48.456;-4.456;2024-03-17T06:59:25;0.00;;;0.00;;
74177;SDS011;62540;48.456;-4.456;2024-03-17T07:01:50;1.75;;;1.00;;
74177;SDS011;62540;48.456;-4.456;2024-03-17T07:04:16;2.50;;;1.00;;
74177;SDS011;62540;48.456;-4.456;2024-03-17T07:06:46;1.00;;;1.00;;
74177;SDS011;62540;48.456;-4.456;2024-03-17T07:09:11;0.00;;;0.00;;
74177;SDS011;62540;48.456;-4.456;2024-03-17T07:11:37;1.00;;;1.00;;
74177;SDS011;62540;48.456;-4.456;2024-03-17T07:14:02;2.00;;;1.75;;
74177;SDS011;62540;48.456;-4.456;2024-03-17T07:16:27;2.00;;;1.00;;
74177;SDS011;62540;48.456;-4.456;2024-03-17T07:18:53;0.50;;;0.50;;
74177;SDS011;62540;48.456;-4.456;2024-03-17T07:21:18;0.75;;;0.50;;
74177;SDS011;62540;48.456;-4.456;2024-03-17T07:23:44;1.50;;;0.25;;
74177;SDS011;62540;48.456;-4.456;2024-03-17T07:26:10;1.25;;;1.00;;
74177;SDS011;62540;48.456;-4.456;2024-03-17T07:28:35;1.00;;;0.00;;
74177;SDS011;62540;48.456;-4.456;2024-03-17T07:31:05;0.00;;;0.00;;
74177;SDS011;62540;48.456;-4.456;2024-03-17T07:33:33;0.50;;;0.50;;
74177;SDS011;62540;48.456;-4.456;2024-03-17T07:35:58;0.75;;;0.75;;
74177;SDS011;62540;48.456;-4.456;2024-03-17T07:38:28;0.00;;;0.00;;
74177;SDS011;62540;48.456;-4.456;2024-03-17T07:41:02;1.00;;;1.00;;
74177;SDS011;62540;48.456;-4.456;2024-03-17T07:43:30;0.25;;;0.25;;
74177;SDS011;62540;48.456;-4.456;2024-03-17T07:46:03;0.00;;;0.00;;
74177;SDS011;62540;48.456;-4.456;2024-03-17T07:48:31;2.75;;;1.75;;
74177;SDS011;62540;48.456;-4.456;2024-03-17T07:50:58;1.25;;;1.00;;
74177;SDS011;62540;48.456;-4.456;2024-03-17T07:53:31;0.75;;;0.75;;
74177;SDS011;62540;48.456;-4.456;2024-03-17T07:56:01;1.00;;;1.00;;
74177;SDS011;62540;48.456;-4.456;2024-03-17T07:58:27;0.00;;;0.00;;
74177;SDS011;62540;48.456;-4.456;2024-03-17T08:00:56;0.00;;;0.00;;
74177;SDS011;62540;48.456;-4.456;2024-03-17T08:03:24;0.00;;;0.00;;
74177;SDS011;62540;48.456;-4.456;2024-03-17T08:05:50;0.00;;;0.00;;
74177;SDS011;62540;48.456;-4.456;2024-03-17T08:08:16;0.00;;;0.00;;
74177;SDS011;62540;48.456;-4.456;2024-03-17T08:10:42;0.00;;;0.00;;
74177;SDS011;62540;48.456;-4.456;2024-03-17T08:13:07;0.00;;;0.00;;
74177;SDS011;62540;48.456;-4.456;2024-03-17T08:15:34;0.00;;;0.00;;
74177;SDS011;62540;48.456;-4.456;2024-03-17T08:18:00;0.00;;;0.00;;
74177;SDS011;62540;48.456;-4.456;2024-03-17T08:20:25;0.25;;;0.00;;
74177;SDS011;62540;48.456;-4.456;2024-03-17T08:22:50;0.00;;;0.00;;
74177;SDS011;62540;48.456;-4.456;2024-03-17T08:25:17;0.00;;;0.00;;
74177;SDS011;62540;48.456;-4.456;2024-03-17T08:27:42;1.00;;;1.00;;
74177;SDS011;62540;48.456;-4.456;2024-03-17T08:30:10;1.75;;;1.00;;
74177;SDS011;62540;48.456;-4.456;2024-03-17T08:32:36;0.75;;;0.50;;
74177;SDS011;62540;48.456;-4.456;2024-03-17T08:35:01;2.00;;;1.00;;
74177;SDS011;62540;48.456;-4.456;2024-03-17T08:37:27;2.00;;;2.00;;
74177;SDS011;62540;48.456;-4.456;2024-03-17T08:39:52;1.75;;;1.00;;
74177;SDS011;62540;48.456;-4.456;2024-03-17T08:42:18;2.00;;;1.00;;
74177;SDS011;62540;48.456;-4.456;2024-03-17T08:44:46;3.00;;;1.00;;
74177;SDS011;62540;48.456;-4.456;2024-03-17T08:47:12;1.75;;;1.75;;
74177;SDS011;62540;48.456;-4.456;2024-03-17T08:49:37;1.25;;;0.00;;
74177;SDS011;62540;48.456;-4.456;2024-03-17T08:52:03;1.25;;;1.00;;
74177;SDS011;62540;48.456;-4.456;2024-03-17T08:54:28;1.00;;;1.00;;
74177;SDS011;62540;48.456;-4.456;2024-03-17T08:56:54;1.75;;;0.25;;
74177;SDS011;62540;48.456;-4.456;2024-03-17T08:59:19;1.00;;;1.00;;
74177;SDS011;62540;48.456;-4.456;2024-03-17T09:01:44;0.25;;;0.25;;
74177;SDS011;62540;48.456;-4.456;2024-03-17T09:04:10;2.00;;;2.00;;
74177;SDS011;62540;48.456;-4.456;2024-03-17T09:06:36;2.00;;;1.00;;
74177;SDS011;62540;48.456;-4.456;2024-03-17T09:09:02;2.75;;;1.25;;
74177;SDS011;62540;48.456;-4.456;2024-03-17T09:11:28;0.25;;;0.25;;
74177;SDS011;62540;48.456;-4.456;2024-03-17T09:13:53;3.00;;;3.00;;
74177;SDS011;62540;48.456;-4.456;2024-03-17T09:16:19;9.00;;;8.00;;
74177;SDS011;62540;48.456;-4.456;2024-03-17T09:18:47;7.75;;;7.75;;
74177;SDS011;62540;48.456;-4.456;2024-03-17T09:21:14;7.25;;;5.75;;
74177;SDS011;62540;48.456;-4.456;2024-03-17T09:23:41;3.25;;;3.00;;
74177;SDS011;62540;48.456;-4.456;2024-03-17T09:26:08;4.00;;;3.00;;
74177;SDS011;62540;48.456;-4.456;2024-03-17T09:28:34;3.00;;;3.00;;
74177;SDS011;62540;48.456;-4.456;2024-03-17T09:31:01;2.50;;;2.50;;
74177;SDS011;62540;48.456;-4.456;2024-03-17T09:33:28;2.00;;;2.00;;
74177;SDS011;62540;48.456;-4.456;2024-03-17T09:38:27;4.25;;;2.25;;
74177;SDS011;62540;48.456;-4.456;2024-03-17T09:40:53;2.00;;;2.00;;
74177;SDS011;62540;48.456;-4.456;2024-03-17T09:43:22;2.00;;;2.00;;
74177;SDS011;62540;48.456;-4.456;2024-03-17T09:45:48;4.00;;;2.75;;
74177;SDS011;62540;48.456;-4.456;2024-03-17T09:48:16;2.50;;;1.00;;
74177;SDS011;62540;48.456;-4.456;2024-03-17T09:50:49;2.00;;;2.00;;
74177;SDS011;62540;48.456;-4.456;2024-03-17T09:53:34;3.00;;;2.25;;
74177;SDS011;62540;48.456;-4.456;2024-03-17T09:56:08;5.00;;;4.00;;
74177;SDS011;62540;48.456;-4.456;2024-03-17T09:58:38;4.25;;;3.25;;
74177;SDS011;62540;48.456;-4.456;2024-03-17T10:01:04;3.00;;;2.50;;
74177;SDS011;62540;48.456;-4.456;2024-03-17T10:03:40;2.50;;;1.75;;
74177;SDS011;62540;48.456;-4.456;2024-03-17T10:06:24;4.00;;;2.25;;
74177;SDS011;62540;48.456;-4.456;2024-03-17T10:11:27;1.50;;;1.50;;
74177;SDS011;62540;48.456;-4.456;2024-03-17T10:14:04;0.75;;;0.75;;
74177;SDS011;62540;48.456;-4.456;2024-03-17T10:16:33;1.00;;;1.00;;
74177;SDS011;62540;48.456;-4.456;2024-03-17T10:19:10;0.75;;;0.75;;
74177;SDS011;62540;48.456;-4.456;2024-03-17T10:21:38;0.75;;;0.00;;
74177;SDS011;62540;48.456;-4.456;2024-03-17T10:24:21;2.00;;;2.00;;
74177;SDS011;62540;48.456;-4.456;2024-03-17T10:26:51;3.00;;;2.00;;
74177;SDS011;62540;48.456;-4.456;2024-03-17T10:29:23;1.00;;;1.00;;
74177;SDS011;62540;48.456;-4.456;2024-03-17T10:31:55;1.75;;;1.00;;
74177;SDS011;62540;48.456;-4.456;2024-03-17T10:34:22;0.50;;;0.25;;
74177;SDS011;62540;48.456;-4.456;2024-03-17T10:39:31;5.25;;;3.00;;
74177;SDS011;62540;48.456;-4.456;2024-03-17T10:41:58;4.00;;;3.00;;
74177;SDS011;62540;48.456;-4.456;2024-03-17T10:44:29;1.00;;;1.00;;
74177;SDS011;62540;48.456;-4.456;2024-03-17T10:46:55;0.50;;;0.50;;
74177;SDS011;62540;48.456;-4.456;2024-03-17T10:49:23;3.75;;;2.00;;
74177;SDS011;62540;48.456;-4.456;2024-03-17T10:51:55;3.00;;;2.00;;
74177;SDS011;62540;48.456;-4.456;2024-03-17T10:54:25;1.00;;;1.00;;
74177;SDS011;62540;48.456;-4.456;2024-03-17T10:56:54;5.25;;;2.50;;
74177;SDS011;62540;48.456;-4.456;2024-03-17T10:59:21;1.50;;;1.50;;
74177;SDS011;62540;48.456;-4.456;2024-03-17T11:02:12;1.00;;;1.00;;
74177;SDS011;62540;48.456;-4.456;2024-03-17T11:04:48;1.00;;;0.00;;
74177;SDS011;62540;48.456;-4.456;2024-03-17T11:07:17;1.00;;;1.00;;
74177;SDS011;62540;48.456;-4.456;2024-03-17T11:09:47;5.25;;;4.25;;
74177;SDS011;62540;48.456;-4.456;2024-03-17T11:18:28;6.00;;;5.25;;
74177;SDS011;62540;48.456;-4.456;2024-03-17T11:20:56;3.75;;;3.00;;
74177;SDS011;62540;48.456;-4.456;2024-03-17T11:23:34;3.00;;;2.25;;
74177;SDS011;62540;48.456;-4.456;2024-03-17T11:26:02;2.25;;;1.75;;
74177;SDS011;62540;48.456;-4.456;2024-03-17T11:31:31;1.75;;;1.00;;
74177;SDS011;62540;48.456;-4.456;2024-03-17T11:34:05;2.00;;;1.00;;
74177;SDS011;62540;48.456;-4.456;2024-03-17T11:41:48;1.75;;;0.25;;
74177;SDS011;62540;48.456;-4.456;2024-03-17T11:47:00;3.00;;;2.00;;
74177;SDS011;62540;48.456;-4.456;2024-03-17T11:49:32;2.00;;;2.00;;
74177;SDS011;62540;48.456;-4.456;2024-03-17T11:52:04;4.00;;;1.25;;
74177;SDS011;62540;48.456;-4.456;2024-03-17T11:54:37;2.00;;;2.00;;
74177;SDS011;62540;48.456;-4.456;2024-03-17T11:57:07;1.50;;;1.50;;
74177;SDS011;62540;48.456;-4.456;2024-03-17T11:59:37;2.00;;;1.25;;
74177;SDS011;62540;48.456;-4.456;2024-03-17T12:02:22;2.00;;;2.00;;
74177;SDS011;62540;48.456;-4.456;2024-03-17T12:04:51;4.25;;;2.00;;
74177;SDS011;62540;48.456;-4.456;2024-03-17T12:07:19;4.25;;;3.00;;
74177;SDS011;62540;48.456;-4.456;2024-03-17T12:09:47;7.25;;;5.75;;
74177;SDS011;62540;48.456;-4.456;2024-03-17T12:12:22;3.00;;;2.25;;
74177;SDS011;62540;48.456;-4.456;2024-03-17T12:15:00;4.00;;;3.25;;
74177;SDS011;62540;48.456;-4.456;2024-03-17T12:17:27;3.00;;;1.50;;
74177;SDS011;62540;48.456;-4.456;2024-03-17T12:19:53;3.50;;;3.00;;
74177;SDS011;62540;48.456;-4.456;2024-03-17T12:22:19;2.00;;;2.00;;
74177;SDS011;62540;48.456;-4.456;2024-03-17T12:24:49;2.00;;;1.00;;
74177;SDS011;62540;48.456;-4.456;2024-03-17T12:27:20;3.00;;;1.00;;
74177;SDS011;62540;48.456;-4.456;2024-03-17T12:29:50;1.00;;;0.25;;
74177;SDS011;62540;48.456;-4.456;2024-03-17T12:32:20;2.00;;;2.00;;
74177;SDS011;62540;48.456;-4.456;2024-03-17T12:34:50;1.00;;;1.00;;
74177;SDS011;62540;48.456;-4.456;2024-03-17T12:37:18;2.00;;;1.00;;
74177;SDS011;62540;48.456;-4.456;2024-03-17T12:39:45;2.25;;;1.00;;
74177;SDS011;62540;48.456;-4.456;2024-03-17T12:42:12;2.00;;;1.00;;
74177;SDS011;62540;48.456;-4.456;2024-03-17T12:44:39;2.00;;;2.00;;
74177;SDS011;62540;48.456;-4.456;2024-03-17T12:47:17;2.00;;;1.75;;
74177;SDS011;62540;48.456;-4.456;2024-03-17T12:54:43;1.25;;;1.25;;
74177;SDS011;62540;48.456;-4.456;2024-03-17T12:57:15;2.50;;;2.00;;
74177;SDS011;62540;48.456;-4.456;2024-03-17T12:59:59;2.75;;;2.00;;
74177;SDS011;62540;48.456;-4.456;2024-03-17T13:02:43;2.50;;;1.00;;
74177;SDS011;62540;48.456;-4.456;2024-03-17T13:07:45;3.00;;;1.50;;
74177;SDS011;62540;48.456;-4.456;2024-03-17T13:10:14;2.25;;;2.00;;
74177;SDS011;62540;48.456;-4.456;2024-03-17T13:12:42;2.50;;;2.00;;
74177;SDS011;62540;48.456;-4.456;2024-03-17T13:15:08;4.50;;;3.00;;
74177;SDS011;62540;48.456;-4.456;2024-03-17T13:17:38;5.75;;;4.00;;
74177;SDS011;62540;48.456;-4.456;2024-03-17T13:20:04;0.25;;;0.00;;
74177;SDS011;62540;48.456;-4.456;2024-03-17T13:22:33;5.25;;;2.00;;
74177;SDS011;62540;48.456;-4.456;2024-03-17T13:25:00;0.50;;;0.00;;
74177;SDS011;62540;48.456;-4.456;2024-03-17T13:27:25;1.75;;;1.50;;
74177;SDS011;62540;48.456;-4.456;2024-03-17T13:29:51;1.00;;;0.75;;
74177;SDS011;62540;48.456;-4.456;2024-03-17T13:32:16;2.25;;;1.50;;
74177;SDS011;62540;48.456;-4.456;2024-03-17T13:34:45;2.25;;;1.00;;
74177;SDS011;62540;48.456;-4.456;2024-03-17T13:37:10;3.00;;;0.25;;
74177;SDS011;62540;48.456;-4.456;2024-03-17T13:39:36;3.00;;;1.00;;
74177;SDS011;62540;48.456;-4.456;2024-03-17T13:42:01;2.50;;;1.00;;
74177;SDS011;62540;48.456;-4.456;2024-03-17T13:44:30;3.00;;;1.00;;
74177;SDS011;62540;48.456;-4.456;2024-03-17T13:46:56;2.00;;;1.00;;
74177;SDS011;62540;48.456;-4.456;2024-03-17T13:49:22;3.50;;;1.50;;
74177;SDS011;62540;48.456;-4.456;2024-03-17T13:51:48;1.00;;;1.00;;
74177;SDS011;62540;48.456;-4.456;2024-03-17T13:54:13;1.50;;;1.00;;
74177;SDS011;62540;48.456;-4.456;2024-03-17T13:56:40;2.00;;;1.00;;
74177;SDS011;62540;48.456;-4.456;2024-03-17T13:59:05;0.00;;;0.00;;
74177;SDS011;62540;48.456;-4.456;2024-03-17T14:01:31;2.25;;;1.75;;
74177;SDS011;62540;48.456;-4.456;2024-03-17T14:03:56;2.50;;;1.00;;
74177;SDS011;62540;48.456;-4.456;2024-03-17T14:06:21;1.00;;;1.00;;
74177;SDS011;62540;48.456;-4.456;2024-03-17T14:08:47;1.25;;;1.00;;
74177;SDS011;62540;48.456;-4.456;2024-03-17T14:11:12;2.00;;;2.00;;
74177;SDS011;62540;48.456;-4.456;2024-03-17T14:13:38;1.25;;;1.00;;
74177;SDS011;62540;48.456;-4.456;2024-03-17T14:16:04;2.00;;;2.00;;
74177;SDS011;62540;48.456;-4.456;2024-03-17T14:18:30;3.75;;;2.00;;
74177;SDS011;62540;48.456;-4.456;2024-03-17T14:20:57;2.00;;;1.00;;
74177;SDS011;62540;48.456;-4.456;2024-03-17T14:23:23;2.00;;;1.00;;
74177;SDS011;62540;48.456;-4.456;2024-03-17T14:25:49;1.00;;;1.00;;
74177;SDS011;62540;48.456;-4.456;2024-03-17T14:28:15;1.00;;;1.00;;
74177;SDS011;62540;48.456;-4.456;2024-03-17T14:30:40;2.50;;;1.00;;
74177;SDS011;62540;48.456;-4.456;2024-03-17T14:33:06;0.25;;;0.25;;
74177;SDS011;62540;48.456;-4.456;2024-03-17T14:35:33;1.50;;;1.00;;
74177;SDS011;62540;48.456;-4.456;2024-03-17T14:37:58;0.25;;;0.25;;
74177;SDS011;62540;48.456;-4.456;2024-03-17T14:40:25;1.00;;;1.00;;
74177;SDS011;62540;48.456;-4.456;2024-03-17T14:42:54;0.75;;;0.00;;
74177;SDS011;62540;48.456;-4.456;2024-03-17T14:45:22;1.00;;;0.50;;
74177;SDS011;62540;48.456;-4.456;2024-03-17T14:47:51;0.50;;;0.50;;
74177;SDS011;62540;48.456;-4.456;2024-03-17T14:50:19;0.50;;;0.50;;
74177;SDS011;62540;48.456;-4.456;2024-03-17T14:52:45;0.25;;;0.25;;
74177;SDS011;62540;48.456;-4.456;2024-03-17T14:55:11;0.00;;;0.00;;
74177;SDS011;62540;48.456;-4.456;2024-03-17T14:57:37;1.00;;;0.00;;
74177;SDS011;62540;48.456;-4.456;2024-03-17T15:00:07;2.50;;;1.00;;
74177;SDS011;62540;48.456;-4.456;2024-03-17T15:02:45;2.00;;;0.75;;
74177;SDS011;62540;48.456;-4.456;2024-03-17T15:05:12;2.50;;;1.25;;
74177;SDS011;62540;48.456;-4.456;2024-03-17T15:07:39;1.50;;;1.00;;
74177;SDS011;62540;48.456;-4.456;2024-03-17T15:10:06;3.75;;;2.00;;